createdAt,value
2017-04-29T00:00:24.580Z,100752
2017-04-29T00:02:54.390Z,100752
2017-04-29T00:05:24.083Z,100746
2017-04-29T00:07:53.390Z,100762
2017-04-29T00:10:22.417Z,100763
2017-04-29T00:12:51.755Z,100760
2017-04-29T00:15:20.729Z,100760
2017-04-29T00:17:49.960Z,100763
2017-04-29T00:20:19.179Z,100768
2017-04-29T00:22:48.854Z,100771
2017-04-29T00:25:17.791Z,100763
2017-04-29T00:27:46.714Z,100761
2017-04-29T00:30:15.650Z,100752
2017-04-29T00:32:44.616Z,100762
2017-04-29T00:35:13.589Z,100758
2017-04-29T00:37:42.941Z,100759
2017-04-29T00:40:12.629Z,100761
2017-04-29T00:42:41.601Z,100760
2017-04-29T00:45:10.541Z,100765
2017-04-29T00:47:40.239Z,100751
2017-04-29T00:50:09.199Z,100753
2017-04-29T00:52:38.151Z,100752
2017-04-29T00:55:07.508Z,100766
2017-04-29T00:57:36.463Z,100763
2017-04-29T01:00:05.408Z,100762
2017-04-29T01:02:35.096Z,100761
2017-04-29T01:05:04.074Z,100755
2017-04-29T01:07:33.031Z,100766
2017-04-29T01:10:01.987Z,100763
2017-04-29T01:12:31.988Z,100764
2017-04-29T01:15:00.977Z,100771
2017-04-29T01:17:29.924Z,100774
2017-04-29T01:19:59.004Z,100777
2017-04-29T01:22:27.938Z,100772
2017-04-29T01:24:56.882Z,100775
2017-04-29T01:27:25.833Z,100766
2017-04-29T01:29:55.489Z,100765
2017-04-29T01:32:24.458Z,100777
2017-04-29T01:34:53.461Z,100781
2017-04-29T01:37:22.404Z,100781
2017-04-29T01:39:51.354Z,100778
2017-04-29T01:42:20.327Z,100778
2017-04-29T01:44:50.051Z,100771
2017-04-29T01:47:19.336Z,100779
2017-04-29T01:49:49.022Z,100782
2017-04-29T01:52:17.963Z,100780
2017-04-29T01:54:46.901Z,100782
2017-04-29T01:57:15.859Z,100782
2017-04-29T01:59:44.808Z,100787
2017-04-29T02:02:14.483Z,100786
2017-04-29T02:04:43.799Z,100791
2017-04-29T02:07:12.746Z,100788
2017-04-29T02:09:41.707Z,100790
2017-04-29T02:12:10.683Z,100794
2017-04-29T02:14:40.359Z,100795
2017-04-29T02:17:09.345Z,100797
2017-04-29T02:19:38.322Z,100793
2017-04-29T02:22:07.555Z,100786
2017-04-29T02:24:36.502Z,100796
2017-04-29T02:27:05.462Z,100796
2017-04-29T02:29:35.134Z,100795
2017-04-29T02:32:04.069Z,100800
2017-04-29T02:34:33.778Z,100803
2017-04-29T02:37:03.470Z,100805
2017-04-29T02:39:32.706Z,100798
2017-04-29T02:42:01.789Z,100804
2017-04-29T02:44:30.726Z,100806
2017-04-29T02:46:59.675Z,100800
2017-04-29T02:49:28.655Z,100801
2017-04-29T02:51:58.655Z,100799
2017-04-29T02:54:27.594Z,100805
2017-04-29T02:56:56.551Z,100798
2017-04-29T02:59:26.295Z,100810
2017-04-29T03:01:55.227Z,100817
2017-04-29T03:04:24.542Z,100820
2017-04-29T03:06:53.564Z,100809
2017-04-29T03:09:22.514Z,100806
2017-04-29T03:11:52.246Z,100811
2017-04-29T03:14:21.960Z,100811
2017-04-29T03:16:51.264Z,100813
2017-04-29T03:19:20.216Z,100825
2017-04-29T03:21:49.256Z,100822
2017-04-29T03:24:18.238Z,100820
2017-04-29T03:26:47.918Z,100823
2017-04-29T03:29:17.208Z,100824
2017-04-29T03:31:46.165Z,100826
2017-04-29T03:34:15.125Z,100809
2017-04-29T03:36:44.856Z,100819
2017-04-29T03:39:13.832Z,100830
2017-04-29T03:41:43.063Z,100823
2017-04-29T03:44:12.013Z,100822
2017-04-29T03:46:41.724Z,100814
2017-04-29T03:49:11.431Z,100820
2017-04-29T03:51:41.122Z,100808
2017-04-29T03:54:10.356Z,100819
2017-04-29T03:56:39.394Z,100812
2017-04-29T03:59:08.347Z,100818
2017-04-29T04:01:37.297Z,100806
2017-04-29T04:04:06.258Z,100817
2017-04-29T04:06:35.692Z,100832
2017-04-29T04:09:04.651Z,100844
2017-04-29T04:11:33.600Z,100846
2017-04-29T04:14:03.304Z,100850
2017-04-29T04:16:33.024Z,100833
2017-04-29T04:19:03.022Z,100830
2017-04-29T04:21:32.739Z,100829
2017-04-29T04:24:02.548Z,100814
2017-04-29T04:26:32.258Z,100819
2017-04-29T04:29:01.934Z,100821
2017-04-29T04:31:31.170Z,100826
2017-04-29T04:34:00.860Z,100829
2017-04-29T04:36:29.831Z,100830
2017-04-29T04:38:58.802Z,100832
2017-04-29T04:41:27.752Z,100843
2017-04-29T04:43:57.650Z,100830
2017-04-29T04:46:26.586Z,100829
2017-04-29T04:48:55.576Z,100837
2017-04-29T04:51:24.508Z,100837
2017-04-29T04:53:53.498Z,100832
2017-04-29T04:56:22.423Z,100828
2017-04-29T04:58:52.091Z,100829
2017-04-29T05:01:21.050Z,100834
2017-04-29T05:03:49.988Z,100833
2017-04-29T05:06:19.221Z,100838
2017-04-29T05:08:48.913Z,100834
2017-04-29T05:11:18.626Z,100844
2017-04-29T05:13:48.323Z,100844
2017-04-29T05:16:17.379Z,100846
2017-04-29T05:18:46.351Z,100845
2017-04-29T05:21:15.285Z,100848
2017-04-29T05:23:44.518Z,100844
2017-04-29T05:26:14.179Z,100844
2017-04-29T05:28:43.171Z,100833
2017-04-29T05:31:12.103Z,100844
2017-04-29T05:33:41.783Z,100844
2017-04-29T05:36:10.714Z,100844
2017-04-29T05:38:39.641Z,100844
2017-04-29T05:41:08.998Z,100846
2017-04-29T05:43:38.692Z,100844
2017-04-29T05:46:08.406Z,100848
2017-04-29T05:48:38.080Z,100855
2017-04-29T05:51:07.015Z,100857
2017-04-29T05:53:36.999Z,100853
2017-04-29T05:56:05.947Z,100853
2017-04-29T05:58:34.873Z,100859
2017-04-29T06:01:03.864Z,100856
2017-04-29T06:03:32.795Z,100863
2017-04-29T06:06:02.071Z,100865
2017-04-29T06:08:31.019Z,100860
2017-04-29T06:10:59.961Z,100854
2017-04-29T06:13:29.670Z,100863
2017-04-29T06:15:58.607Z,100861
2017-04-29T06:18:27.626Z,100868
2017-04-29T06:20:56.547Z,100869
2017-04-29T06:23:26.595Z,100867
2017-04-29T06:25:55.642Z,100876
2017-04-29T06:28:24.587Z,100868
2017-04-29T06:30:53.534Z,100880
2017-04-29T06:33:23.252Z,100878
2017-04-29T06:35:52.935Z,100875
2017-04-29T06:38:21.922Z,100881
2017-04-29T06:40:51.238Z,100876
2017-04-29T06:43:20.230Z,100882
2017-04-29T06:45:49.193Z,100888
2017-04-29T06:48:18.159Z,100893
2017-04-29T06:50:47.099Z,100889
2017-04-29T06:53:16.053Z,100899
2017-04-29T06:55:45.025Z,100891
2017-04-29T06:58:14.303Z,100889
2017-04-29T07:00:43.972Z,100885
2017-04-29T07:03:12.936Z,100886
2017-04-29T07:05:41.859Z,100894
2017-04-29T07:08:10.818Z,100897
2017-04-29T07:10:39.760Z,100901
2017-04-29T07:13:09.487Z,100893
2017-04-29T07:15:38.748Z,100892
2017-04-29T07:18:07.722Z,100899
2017-04-29T07:20:36.655Z,100906
2017-04-29T07:23:06.348Z,100897
2017-04-29T07:25:35.302Z,100903
2017-04-29T07:28:04.266Z,100899
2017-04-29T07:30:33.237Z,100901
2017-04-29T07:33:03.271Z,100895
2017-04-29T07:35:32.230Z,100901
2017-04-29T07:38:01.212Z,100901
2017-04-29T07:40:30.174Z,100905
2017-04-29T07:42:59.159Z,100902
2017-04-29T07:45:28.122Z,100909
2017-04-29T07:47:57.068Z,100908
2017-04-29T07:50:26.420Z,100901
2017-04-29T07:52:55.451Z,100911
2017-04-29T07:55:24.383Z,100904
2017-04-29T07:57:54.083Z,100904
2017-04-29T08:00:23.047Z,100913
2017-04-29T08:02:52.013Z,100905
2017-04-29T08:05:20.967Z,100916
2017-04-29T08:07:50.678Z,100913
2017-04-29T08:10:20.378Z,100911
2017-04-29T08:12:50.400Z,100906
2017-04-29T08:15:20.662Z,100905
2017-04-29T08:17:49.925Z,100906
2017-04-29T08:20:19.610Z,100909
2017-04-29T08:22:48.567Z,100908
2017-04-29T08:25:17.503Z,100912
2017-04-29T08:27:46.463Z,100900
2017-04-29T08:30:15.439Z,100906
2017-04-29T08:32:44.424Z,100910
2017-04-29T08:35:13.682Z,100911
2017-04-29T08:37:43.402Z,100920
2017-04-29T08:40:13.137Z,100911
2017-04-29T08:42:42.118Z,100919
2017-04-29T08:45:11.071Z,100926
2017-04-29T08:47:40.029Z,100923
2017-04-29T08:50:08.992Z,100923
2017-04-29T08:52:38.259Z,100933
2017-04-29T08:55:07.212Z,100926
2017-04-29T08:57:36.620Z,100927
2017-04-29T09:00:05.612Z,100921
2017-04-29T09:02:34.573Z,100929
2017-04-29T09:05:03.550Z,100921
2017-04-29T09:07:32.524Z,100933
2017-04-29T09:10:02.503Z,100930
2017-04-29T09:12:31.563Z,100933
2017-04-29T09:15:00.496Z,100936
2017-04-29T09:17:29.503Z,100923
2017-04-29T09:19:58.486Z,100925
2017-04-29T09:22:27.541Z,100920
2017-04-29T09:24:56.555Z,100928
2017-04-29T09:27:25.851Z,100931
2017-04-29T09:29:54.844Z,100932
2017-04-29T09:32:23.807Z,100934
2017-04-29T09:34:52.770Z,100942
2017-04-29T09:37:22.468Z,100938
2017-04-29T09:39:51.411Z,100940
2017-04-29T09:42:20.396Z,100939
2017-04-29T09:44:49.778Z,100938
2017-04-29T09:47:18.768Z,100946
2017-04-29T09:49:47.725Z,100944
2017-04-29T09:52:16.667Z,100946
2017-04-29T09:54:45.617Z,100944
2017-04-29T09:57:14.544Z,100941
2017-04-29T09:59:43.655Z,100950
2017-04-29T10:02:12.915Z,100949
2017-04-29T10:04:41.871Z,100951
2017-04-29T10:07:10.798Z,100940
2017-04-29T10:09:40.530Z,100947
2017-04-29T10:12:09.635Z,100941
2017-04-29T10:14:38.594Z,100940
2017-04-29T10:17:08.291Z,100938
2017-04-29T10:19:39.167Z,100944
2017-04-29T10:22:08.109Z,100938
2017-04-29T10:24:37.044Z,100946
2017-04-29T10:27:05.994Z,100933
2017-04-29T10:29:34.917Z,100932
2017-04-29T10:32:03.918Z,100933
2017-04-29T10:34:32.864Z,100938
2017-04-29T10:37:02.273Z,100934
2017-04-29T10:39:31.247Z,100940
2017-04-29T10:42:00.197Z,100930
2017-04-29T10:44:29.156Z,100929
2017-04-29T10:46:58.853Z,100928
2017-04-29T10:49:27.829Z,100921
2017-04-29T10:51:56.790Z,100921
2017-04-29T10:54:26.166Z,100921
2017-04-29T10:56:55.138Z,100929
2017-04-29T10:59:24.087Z,100931
2017-04-29T11:01:53.060Z,100932
2017-04-29T11:04:22.003Z,100941
2017-04-29T11:06:51.746Z,100942
2017-04-29T11:09:20.718Z,100961
2017-04-29T11:11:50.732Z,100949
2017-04-29T11:14:20.486Z,100951
2017-04-29T11:16:49.491Z,100962
2017-04-29T11:19:18.464Z,100960
2017-04-29T11:21:47.437Z,100958
2017-04-29T11:24:16.451Z,100963
2017-04-29T11:26:45.569Z,100953
2017-04-29T11:29:14.911Z,100961
2017-04-29T11:31:44.032Z,100959
2017-04-29T11:34:13.277Z,100961
2017-04-29T11:36:42.283Z,100961
2017-04-29T11:39:12.027Z,100962
2017-04-29T11:41:41.069Z,100953
2017-04-29T11:44:10.079Z,100947
2017-04-29T11:46:39.380Z,100951
2017-04-29T11:49:09.511Z,100954
2017-04-29T11:51:38.627Z,100952
2017-04-29T11:54:07.617Z,100966
2017-04-29T11:56:36.699Z,100964
2017-04-29T11:59:05.686Z,100972
2017-04-29T12:01:34.685Z,100970
2017-04-29T12:04:05.540Z,100970
2017-04-29T12:06:34.505Z,100983
2017-04-29T12:09:03.476Z,100970
2017-04-29T12:11:32.603Z,100980
2017-04-29T12:14:01.696Z,100983
2017-04-29T12:16:30.838Z,100992
2017-04-29T12:18:59.796Z,100994
2017-04-29T12:21:29.165Z,101007
2017-04-29T12:23:58.864Z,101007
2017-04-29T12:26:28.595Z,101016
2017-04-29T12:28:57.554Z,101018
2017-04-29T12:31:27.331Z,101020
2017-04-29T12:33:56.311Z,101025
2017-04-29T12:36:25.406Z,101019
2017-04-29T12:38:54.649Z,101033
2017-04-29T12:41:24.372Z,101037
2017-04-29T12:43:54.100Z,101052
2017-04-29T12:46:23.057Z,101048
2017-04-29T12:48:51.996Z,101047
2017-04-29T12:51:21.001Z,101049
2017-04-29T12:53:49.956Z,101067
2017-04-29T12:56:20.058Z,101064
2017-04-29T12:58:49.751Z,101061
2017-04-29T13:01:18.779Z,101067
2017-04-29T13:03:47.723Z,101067
2017-04-29T13:06:16.686Z,101058
2017-04-29T13:08:45.659Z,101062
2017-04-29T13:11:14.593Z,101069
2017-04-29T13:13:43.945Z,101072
2017-04-29T13:16:13.222Z,101067
2017-04-29T13:18:42.168Z,101062
2017-04-29T13:21:11.146Z,101062
2017-04-29T13:23:40.091Z,101067
2017-04-29T13:26:09.092Z,101063
2017-04-29T13:28:38.795Z,101063
2017-04-29T13:31:08.083Z,101062
2017-04-29T13:33:37.010Z,101067
2017-04-29T13:36:06.007Z,101065
2017-04-29T13:38:34.970Z,101064
2017-04-29T13:41:04.660Z,101060
2017-04-29T13:43:33.706Z,101043
2017-04-29T13:46:02.779Z,101058
2017-04-29T13:48:32.821Z,101054
2017-04-29T13:51:01.850Z,101058
2017-04-29T13:53:30.810Z,101060
2017-04-29T13:55:59.799Z,101060
2017-04-29T13:58:28.809Z,101060
2017-04-29T14:00:57.780Z,101060
2017-04-29T14:03:26.754Z,101055
2017-04-29T14:05:56.271Z,101055
2017-04-29T14:08:25.236Z,101062
2017-04-29T14:10:54.923Z,101062
2017-04-29T14:13:23.843Z,101059
2017-04-29T14:15:53.602Z,101056
2017-04-29T14:18:22.588Z,101053
2017-04-29T14:20:51.535Z,101067
2017-04-29T14:23:21.260Z,101074
2017-04-29T14:25:50.211Z,101068
2017-04-29T14:28:19.624Z,101067
2017-04-29T14:30:49.353Z,101065
2017-04-29T14:33:18.299Z,101082
2017-04-29T14:35:47.334Z,101090
2017-04-29T14:38:16.305Z,101086
2017-04-29T14:40:45.370Z,101091
2017-04-29T14:43:14.348Z,101100
2017-04-29T14:45:43.610Z,101094
2017-04-29T14:48:13.355Z,101093
2017-04-29T14:50:42.327Z,101090
2017-04-29T14:53:11.328Z,101091
2017-04-29T14:55:40.242Z,101099
2017-04-29T14:58:09.258Z,101095
2017-04-29T15:00:38.223Z,101091
2017-04-29T15:03:07.698Z,101090
2017-04-29T15:05:36.650Z,101086
2017-04-29T15:08:05.626Z,101093
2017-04-29T15:10:34.602Z,101086
2017-04-29T15:13:03.579Z,101093
2017-04-29T15:15:32.942Z,101088
2017-04-29T15:18:01.902Z,101087
2017-04-29T15:20:30.949Z,101089
2017-04-29T15:23:00.843Z,101087
2017-04-29T15:25:31.444Z,101089
2017-04-29T15:28:00.409Z,101090
2017-04-29T15:30:29.381Z,101087
2017-04-29T15:32:58.727Z,101095
2017-04-29T15:35:27.664Z,101100
2017-04-29T15:37:56.642Z,101101
2017-04-29T15:40:25.624Z,101107
2017-04-29T15:42:55.318Z,101104
2017-04-29T15:45:24.287Z,101109
2017-04-29T15:47:53.267Z,101111
2017-04-29T15:50:23.115Z,101109
2017-04-29T15:52:52.802Z,101114
2017-04-29T15:55:21.764Z,101117
2017-04-29T15:57:51.485Z,101110
2017-04-29T16:00:20.439Z,101115
2017-04-29T16:02:49.472Z,101118
2017-04-29T16:05:18.705Z,101115
2017-04-29T16:07:47.700Z,101120
2017-04-29T16:10:17.422Z,101122
2017-04-29T16:12:47.186Z,101124
2017-04-29T16:15:16.160Z,101125
2017-04-29T16:17:45.155Z,101119
2017-04-29T16:20:14.170Z,101120
2017-04-29T16:22:43.398Z,101120
2017-04-29T16:25:13.077Z,101123
2017-04-29T16:27:43.169Z,101119
2017-04-29T16:30:13.034Z,101118
2017-04-29T16:32:43.050Z,101121
2017-04-29T16:35:12.770Z,101119
2017-04-29T16:37:42.490Z,101120
2017-04-29T16:40:11.464Z,101111
2017-04-29T16:42:41.212Z,101121
2017-04-29T16:45:10.175Z,101120
2017-04-29T16:47:39.978Z,101118
2017-04-29T16:50:09.734Z,101119
2017-04-29T16:52:38.712Z,101113
2017-04-29T16:55:07.673Z,101120
2017-04-29T16:57:37.421Z,101121
2017-04-29T17:00:06.775Z,101130
2017-04-29T17:02:36.469Z,101121
2017-04-29T17:05:05.438Z,101128
2017-04-29T17:07:34.538Z,101127
2017-04-29T17:10:03.507Z,101126
2017-04-29T17:12:32.968Z,101121
2017-04-29T17:15:02.679Z,101127
2017-04-29T17:17:32.699Z,101133
2017-04-29T17:20:02.394Z,101133
2017-04-29T17:22:32.103Z,101131
2017-04-29T17:25:02.683Z,101134
2017-04-29T17:27:31.644Z,101131
2017-04-29T17:30:01.959Z,101132
2017-04-29T17:32:31.685Z,101135
2017-04-29T17:35:00.662Z,101140
2017-04-29T17:37:29.668Z,101135
2017-04-29T17:39:58.603Z,101135
2017-04-29T17:42:27.924Z,101143
2017-04-29T17:44:57.691Z,101151
2017-04-29T17:47:26.637Z,101154
2017-04-29T17:49:56.381Z,101142
2017-04-29T17:52:25.404Z,101155
2017-04-29T17:54:54.402Z,101154
2017-04-29T17:57:23.366Z,101155
2017-04-29T17:59:52.361Z,101163
2017-04-29T18:02:21.450Z,101155
2017-04-29T18:04:50.710Z,101168
2017-04-29T18:07:20.416Z,101171
2017-04-29T18:09:50.158Z,101172
2017-04-29T18:12:19.140Z,101176
2017-04-29T18:14:48.109Z,101173
2017-04-29T18:17:17.829Z,101174
2017-04-29T18:19:47.540Z,101171
2017-04-29T18:22:16.547Z,101177
2017-04-29T18:24:45.500Z,101180
2017-04-29T18:27:14.918Z,101179
2017-04-29T18:29:44.719Z,101185
2017-04-29T18:32:15.510Z,101182
2017-04-29T18:34:44.520Z,101187
2017-04-29T18:37:13.548Z,101194
2017-04-29T18:39:43.276Z,101179
2017-04-29T18:42:12.255Z,101197
2017-04-29T18:44:41.231Z,101194
2017-04-29T18:47:11.019Z,101197
2017-04-29T18:49:40.042Z,101202
2017-04-29T18:52:09.810Z,101210
2017-04-29T18:54:39.149Z,101213
2017-04-29T18:57:08.818Z,101220
2017-04-29T18:59:38.281Z,101217
2017-04-29T19:02:07.249Z,101217
2017-04-29T19:04:36.969Z,101222
2017-04-29T19:07:06.005Z,101220
2017-04-29T19:09:35.004Z,101232
2017-04-29T19:12:04.278Z,101224
2017-04-29T19:14:33.262Z,101236
2017-04-29T19:17:02.212Z,101227
2017-04-29T19:19:31.235Z,101233
2017-04-29T19:22:00.260Z,101228
2017-04-29T19:24:29.251Z,101223
2017-04-29T19:26:58.217Z,101227
2017-04-29T19:29:27.633Z,101228
2017-04-29T19:31:56.632Z,101228
2017-04-29T19:34:25.623Z,101227
2017-04-29T19:36:54.636Z,101228
2017-04-29T19:39:23.693Z,101232
2017-04-29T19:41:52.666Z,101230
2017-04-29T19:44:21.659Z,101234
2017-04-29T19:46:50.713Z,101232
2017-04-29T19:49:19.700Z,101246
2017-04-29T19:51:48.674Z,101243
2017-04-29T19:54:17.702Z,101248
2017-04-29T19:56:47.124Z,101253
2017-04-29T19:59:16.103Z,101254
2017-04-29T20:01:45.132Z,101254
2017-04-29T20:04:14.123Z,101258
2017-04-29T20:06:43.163Z,101263
2017-04-29T20:09:12.159Z,101257
2017-04-29T20:11:41.143Z,101259
2017-04-29T20:14:10.398Z,101259
2017-04-29T20:16:39.455Z,101261
2017-04-29T20:19:10.010Z,101266
2017-04-29T20:21:39.169Z,101272
2017-04-29T20:24:08.125Z,101266
2017-04-29T20:26:37.126Z,101259
2017-04-29T20:29:06.085Z,101265
2017-04-29T20:31:35.051Z,101266
2017-04-29T20:34:04.789Z,101272
2017-04-29T20:36:34.187Z,101267
2017-04-29T20:39:03.151Z,101270
2017-04-29T20:41:32.852Z,101270
2017-04-29T20:44:01.871Z,101266
2017-04-29T20:46:31.595Z,101265
2017-04-29T20:49:00.578Z,101262
2017-04-29T20:51:29.560Z,101268
2017-04-29T20:53:59.587Z,101277
2017-04-29T20:56:28.642Z,101276
2017-04-29T20:58:57.583Z,101277
2017-04-29T21:01:26.570Z,101290
2017-04-29T21:03:55.528Z,101284
2017-04-29T21:06:24.543Z,101288
2017-04-29T21:08:53.536Z,101297
2017-04-29T21:11:22.825Z,101286
2017-04-29T21:13:52.511Z,101290
2017-04-29T21:16:21.517Z,101287
2017-04-29T21:18:51.209Z,101287
2017-04-29T21:21:20.162Z,101287
2017-04-29T21:23:49.135Z,101292
2017-04-29T21:26:18.121Z,101291
2017-04-29T21:28:47.374Z,101298
2017-04-29T21:31:16.341Z,101294
2017-04-29T21:33:45.324Z,101295
2017-04-29T21:36:14.376Z,101300
2017-04-29T21:38:44.079Z,101299
2017-04-29T21:41:13.961Z,101300
2017-04-29T21:43:42.920Z,101299
2017-04-29T21:46:12.199Z,101303
2017-04-29T21:48:41.165Z,101304
2017-04-29T21:51:10.095Z,101296
2017-04-29T21:53:39.028Z,101307
2017-04-29T21:56:08.013Z,101306
2017-04-29T21:58:36.970Z,101298
2017-04-29T22:01:05.913Z,101310
2017-04-29T22:03:35.236Z,101310
2017-04-29T22:06:04.949Z,101308
2017-04-29T22:08:34.960Z,101303
2017-04-29T22:11:04.667Z,101305
2017-04-29T22:13:34.385Z,101306
2017-04-29T22:16:04.138Z,101305
2017-04-29T22:18:33.141Z,101313
2017-04-29T22:21:02.093Z,101317
2017-04-29T22:23:31.136Z,101315
2017-04-29T22:26:01.114Z,101311
2017-04-29T22:28:30.106Z,101309
2017-04-29T22:30:59.087Z,101301
2017-04-29T22:33:28.015Z,101311
2017-04-29T22:35:57.029Z,101310
2017-04-29T22:38:26.047Z,101306
2017-04-29T22:40:55.722Z,101309
2017-04-29T22:43:25.037Z,101314
2017-04-29T22:45:54.723Z,101305
2017-04-29T22:48:23.670Z,101313
2017-04-29T22:50:52.580Z,101309
2017-04-29T22:53:21.511Z,101306
2017-04-29T22:55:50.440Z,101297
2017-04-29T22:58:19.386Z,101301
2017-04-29T23:00:48.698Z,101293
2017-04-29T23:03:17.624Z,101299
2017-04-29T23:05:46.568Z,101291
2017-04-29T23:08:15.503Z,101299
2017-04-29T23:10:44.499Z,101297
2017-04-29T23:13:13.450Z,101300
2017-04-29T23:15:42.385Z,101292
2017-04-29T23:18:11.755Z,101306
2017-04-29T23:20:41.450Z,101298
2017-04-29T23:23:10.456Z,101298
2017-04-29T23:25:40.124Z,101300
2017-04-29T23:28:09.784Z,101298
2017-04-29T23:30:38.747Z,101305
2017-04-29T23:33:07.724Z,101307
2017-04-29T23:35:36.967Z,101306
2017-04-29T23:38:05.917Z,101305
2017-04-29T23:40:34.892Z,101309
2017-04-29T23:43:03.849Z,101308
2017-04-29T23:45:32.825Z,101309
2017-04-29T23:48:02.507Z,101305
2017-04-29T23:50:31.584Z,101311
2017-04-29T23:53:00.546Z,101313
2017-04-29T23:55:29.483Z,101319
2017-04-29T23:57:58.778Z,101320
